METAR Data
IDs: Format: Raw Decoded Include TAF

Data at: 1448 UTC 25 Jan 2020

Region: TOP
KATL 251357Z 29011KT 10SM FEW022 BKN029 04/00 A3009 RMK AO2 BKN029 V SCT T00390000

KBOS 251354Z 07013KT 10SM OVC017 06/02 A3028 RMK AO2 SLP253 T00610017

KBWI 251430Z 33003KT 6SM -RA BR SCT008 BKN040 OVC080 08/07 A2980 RMK AO2 RAB1355 P0002 T00830067

KCLE 251416Z 23009KT 10SM SCT012 OVC017 05/02 A2988 RMK AO2 T00500022

KCLT 251352Z COR 27005KT 6SM OVC005 05/03 A2997 RMK AO2 CIG 004V008 SLP149 T00500033

KCVG 251352Z 23011G18KT 9SM BKN009 OVC010 02/M01 A2995 RMK AO2 SLP145 T00171006

KDCA 251352Z 22003KT 10SM -RA BKN010 OVC090 09/08 A2989 RMK AO2 RAE39B44 PRESRR SLP121 P0002 T00890078

KDEN 251353Z 23006KT 10SM BKN100 BKN200 00/M06 A2999 RMK AO2 SLP159 T00001061

KDFW 251353Z 13005KT 10SM BKN300 03/01 A3009 RMK AO2 SLP190 T00330006

KDTW 251445Z 20006KT 3SM BR OVC004 02/02 A2984 RMK AO2 RAE05B33E45DZB05E33 P0001 T00170017 $

KEWR 251427Z 05010KT 2 1/2SM -RA BR OVC006 05/04 A3002 RMK AO2 P0000 T00500039

KFLL 251353Z 31006KT 10SM FEW032 FEW075 SCT250 21/18 A3008 RMK AO2 SLP185 T02060183

KIAD 251445Z 31005KT 4SM -RA BR OVC006 07/06 A2986 RMK AO2 RAB24 P0001 T00720056 $

KIAH 251353Z 12005KT 10SM FEW090 SCT250 08/06 A3018 RMK AO2 SLP219 T00780056

KJFK 251419Z 06017KT 1 1/2SM BR OVC004 06/06 A3006 RMK AO2 T00560056

KLAS 251356Z 23004KT 10SM SCT250 07/M01 A3011 RMK AO2 SLP192 T00671011

KLAX 251353Z 05005KT 1/4SM FG VV001 13/12 A3002 RMK AO2 SLP164 T01280122 RVRNO $

KLGA 251432Z 06015KT 2SM BR OVC005 04/03 A3006 RMK AO2 SFC VIS 2 1/2 DZE28 P0000 T00440028

KMCO 251353Z 33011KT 10SM FEW250 15/10 A3012 RMK AO2 SLP199 T01500100

KMDW 251442Z 27010KT 2SM -SN BR OVC009 01/01 A2982 RMK AO2 SNB03 P0000 T00110006

KMEM 251354Z 31006KT 10SM OVC026 03/M01 A3017 RMK AO2 SLP216 T00281011

KMIA 251353Z 34004KT 10SM FEW035 FEW070 SCT250 22/17 A3009 RMK AO2 SLP189 T02220167

KMSP 251353Z 32010KT 10SM BKN022 BKN027 OVC046 M02/M04 A2995 RMK AO2 SLP153 T10171044

KORD 251414Z 26007KT 3SM -SN BR BKN009 OVC012 01/00 A2980 RMK AO2 P0000 T00060000

KPDX 251407Z 12012KT 4SM -RA BR SCT006 OVC012 08/07 A2994 RMK AO2 P0000 T00830067

KPHL 251424Z 09019G26KT 4SM RA BR BKN007 OVC011 09/08 A2984 RMK AO2 PK WND 09026/1422 P0005 T00940078

KPHX 251351Z 14005KT 10SM FEW250 09/04 A3002 RMK AO2 SLP157 T00940044 $

KPIT 251430Z 24006KT 10SM -RA SCT011 BKN036 OVC060 04/03 A2987 RMK AO2 P0000 T00390028 $

KSAN 251432Z 00000KT 2SM BR OVC007 14/12 A3005 RMK AO2 T01390122

KSEA 251353Z 00000KT 10SM -RA FEW040 OVC046 08/06 A2991 RMK AO2 SLP134 P0003 T00780061

KSFO 251442Z 00000KT 4SM BR FEW003 BKN009 12/11 A3014 RMK AO2 T01170106

KSLC 251433Z 00000KT 1SM R16L/P6000FT BR OVC005 01/01 A3021 RMK AO2 SFC VIS 2 T00110011

KSTL 251351Z 29012KT 10SM OVC014 00/M03 A3006 RMK AO2 PK WND 27026/1321 SNE05 SLP190 P0000 T00001028

KTPA 251353Z 36007KT 10SM CLR 16/07 A3014 RMK AO2 SLP207 T01560067 $